Time;durP1;ratioP1;P1;durP2;ratioP2;P2;SDS_P1;SDS_P2;PMS_P1;PMS_P2;Temp;Humidity;BMP_temperature;BMP_pressure;BME280_temperature;BME280_humidity;BME280_pressure;Samples;Min_cycle;Max_cycle;Signal;HPM_P1;HPM_P2
2023/11/18 00:00:20;;;;;;;23.45;11.77;;;;;;;5.40;53.31;102056.88;5063794;28;20131;-84
2023/11/18 00:02:49;;;;;;;26.60;12.15;;;;;;;5.41;53.29;102058.66;5054204;28;20136;-84
2023/11/18 00:05:20;;;;;;;23.15;11.30;;;;;;;5.40;53.05;102053.28;5050068;28;20061;-84
2023/11/18 00:07:48;;;;;;;26.45;12.00;;;;;;;5.40;53.42;102059.59;5048767;28;20037;-83
2023/11/18 00:10:16;;;;;;;25.45;11.25;;;;;;;5.42;53.36;102056.81;5047963;28;20039;-84
2023/11/18 00:12:45;;;;;;;26.52;12.25;;;;;;;5.43;53.25;102066.72;5068025;28;20048;-84
2023/11/18 00:15:12;;;;;;;25.88;12.43;;;;;;;5.45;53.47;102060.28;5064950;28;20069;-84
2023/11/18 00:17:41;;;;;;;24.38;12.32;;;;;;;5.46;53.45;102061.16;5050407;28;20103;-85
2023/11/18 00:20:12;;;;;;;24.00;11.57;;;;;;;5.47;53.26;102068.31;5049548;28;20057;-86
2023/11/18 00:22:42;;;;;;;25.17;12.82;;;;;;;5.48;53.36;102067.38;5060928;28;20048;-84
2023/11/18 00:25:10;;;;;;;25.90;12.90;;;;;;;5.48;53.37;102068.25;5045040;28;20181;-85
2023/11/18 00:27:39;;;;;;;22.83;11.90;;;;;;;5.50;53.35;102066.34;5043081;28;20041;-84
2023/11/18 00:30:10;;;;;;;28.02;13.55;;;;;;;5.52;53.54;102056.31;5051106;28;20055;-84
2023/11/18 00:32:39;;;;;;;24.90;12.30;;;;;;;5.50;53.63;102065.47;5067984;28;20041;-83
2023/11/18 00:35:10;;;;;;;24.27;12.27;;;;;;;5.53;53.21;102057.19;5056354;28;20044;-85
2023/11/18 00:37:38;;;;;;;25.67;12.23;;;;;;;5.54;53.11;102048.94;5071961;28;20041;-85
2023/11/18 00:40:09;;;;;;;25.48;11.95;;;;;;;5.57;53.38;102046.09;5058245;28;20041;-83
2023/11/18 00:42:38;;;;;;;26.52;12.73;;;;;;;5.53;53.32;102039.06;5083055;28;20057;-83
2023/11/18 00:45:07;;;;;;;25.92;12.48;;;;;;;5.59;53.35;102043.31;5072527;28;20064;-82
2023/11/18 00:47:35;;;;;;;23.17;12.32;;;;;;;5.58;53.25;102039.72;5091537;28;20037;-83
2023/11/18 00:50:07;;;;;;;24.15;12.27;;;;;;;5.59;53.65;102035.16;5067546;28;20133;-83
2023/11/18 00:52:38;;;;;;;;;;;;;;;5.36;54.60;102038.09;5053555;28;20464;-84
2023/11/18 00:55:07;;;;;;;24.48;10.63;;;;;;;5.55;53.58;102034.44;5052574;28;19928;-84
2023/11/18 00:57:38;;;;;;;27.30;13.13;;;;;;;5.60;53.49;102029.66;5063050;28;20564;-85
2023/11/18 01:00:13;;;;;;;23.15;12.23;;;;;;;5.62;53.45;102033.16;5071705;28;20517;-83
2023/11/18 01:02:42;;;;;;;22.40;11.55;;;;;;;5.61;53.38;102031.44;5059291;28;20037;-84
2023/11/18 01:05:10;;;;;;;26.38;11.73;;;;;;;5.61;53.20;102030.56;5061963;28;20064;-83
2023/11/18 01:07:39;;;;;;;25.00;12.43;;;;;;;5.61;53.54;102031.44;5077984;28;20041;-83
2023/11/18 01:10:09;;;;;;;23.77;12.52;;;;;;;5.60;53.70;102026.97;5058701;28;20416;-83
2023/11/18 01:12:39;;;;;;;25.15;12.18;;;;;;;5.60;53.54;102029.66;5072029;28;20037;-82
2023/11/18 01:15:10;;;;;;;23.05;11.88;;;;;;;5.62;53.47;102029.59;5071507;28;20045;-83
2023/11/18 01:17:38;;;;;;;20.95;11.20;;;;;;;5.61;53.33;102036.00;5065145;28;20064;-83
2023/11/18 01:20:10;;;;;;;23.15;11.65;;;;;;;5.62;53.61;102037.75;5053607;28;20116;-83
2023/11/18 01:22:40;;;;;;;24.90;12.13;;;;;;;5.56;53.10;102035.31;5070471;28;20037;-83
2023/11/18 01:25:09;;;;;;;22.35;11.05;;;;;;;5.59;53.25;102046.91;5053010;28;20040;-82
2023/11/18 01:27:39;;;;;;;23.48;11.85;;;;;;;5.59;53.30;102062.31;5067956;28;20041;-83
2023/11/18 01:30:09;;;;;;;21.55;11.20;;;;;;;5.57;53.14;102065.13;5053650;28;20037;-83
2023/11/18 01:32:39;;;;;;;22.35;11.38;;;;;;;5.54;53.19;102058.97;5063436;28;20051;-83
2023/11/18 01:35:10;;;;;;;18.77;10.63;;;;;;;5.56;53.35;102071.50;5067122;28;20056;-83
2023/11/18 01:37:39;;;;;;;21.80;11.32;;;;;;;5.54;53.20;102069.81;5069986;28;20045;-83
2023/11/18 01:40:10;;;;;;;22.85;10.98;;;;;;;5.54;53.37;102075.25;5060430;28;20099;-84
2023/11/18 01:42:42;;;;;;;20.83;10.95;;;;;;;5.55;53.15;102074.28;5067493;28;20087;-84
2023/11/18 01:45:11;;;;;;;24.52;12.13;;;;;;;5.52;53.35;102074.44;5049747;28;20382;-83
2023/11/18 01:47:40;;;;;;;22.65;11.10;;;;;;;5.54;52.94;102075.25;5065307;28;20061;-84
2023/11/18 01:50:11;;;;;;;22.98;10.02;;;;;;;5.51;53.22;102073.56;5055122;28;20047;-83
2023/11/18 01:52:41;;;;;;;21.33;11.02;;;;;;;5.49;53.34;102070.03;5053143;28;20041;-83
2023/11/18 01:55:13;;;;;;;21.50;11.35;;;;;;;5.49;53.05;102066.44;5064305;28;20047;-82
2023/11/18 01:57:43;;;;;;;23.23;11.35;;;;;;;5.49;53.21;102063.72;5066497;28;20037;-82
2023/11/18 02:00:17;;;;;;;24.58;11.88;;;;;;;5.46;53.31;102055.72;5070301;28;20144;-83
2023/11/18 02:02:46;;;;;;;21.75;11.15;;;;;;;5.48;53.21;102065.53;5071085;28;20056;-82
2023/11/18 02:05:15;;;;;;;21.45;10.98;;;;;;;5.48;53.25;102070.09;5070031;28;21004;-82
2023/11/18 02:07:44;;;;;;;22.77;10.82;;;;;;;5.48;53.41;102068.25;5054008;28;20509;-82
2023/11/18 02:10:14;;;;;;;20.50;10.88;;;;;;;5.46;53.24;102063.88;5066518;28;20133;-83
2023/11/18 02:12:52;;;;;;;22.40;11.57;;;;;;;5.50;53.50;102066.34;5053785;28;20124;-82
2023/11/18 02:15:23;;;;;;;23.23;11.30;;;;;;;5.48;53.33;102053.81;5042557;28;20041;-83
2023/11/18 02:17:54;;;;;;;20.55;10.48;;;;;;;5.49;53.22;102055.56;5071600;28;20609;-82
2023/11/18 02:20:24;;;;;;;19.17;10.40;;;;;;;5.47;53.26;102054.75;5053468;28;20067;-83
2023/11/18 02:22:53;;;;;;;19.83;10.75;;;;;;;5.45;52.98;102046.72;5066358;28;20349;-83
2023/11/18 02:25:26;;;;;;;20.15;10.93;;;;;;;5.44;53.18;102050.38;5054126;28;20139;-83
2023/11/18 02:27:56;;;;;;;18.77;10.85;;;;;;;5.45;52.80;102043.09;5059953;28;20068;-84
2023/11/18 02:30:24;;;;;;;21.20;10.90;;;;;;;5.43;53.40;102056.75;5053938;28;20045;-83
2023/11/18 02:32:59;;;;;;;19.27;10.75;;;;;;;5.46;53.29;102058.44;5053106;28;20071;-84
2023/11/18 02:35:31;;;;;;;19.38;10.40;;;;;;;5.44;53.21;102052.19;5063043;28;20053;-85
2023/11/18 02:38:02;;;;;;;19.23;9.90;;;;;;;5.42;53.01;102048.66;5053226;28;20139;-85
2023/11/18 02:40:35;;;;;;;16.92;9.00;;;;;;;5.44;53.11;102049.47;5057689;28;20413;-84
2023/11/18 02:43:06;;;;;;;17.55;9.18;;;;;;;5.42;53.12;102044.13;5054131;28;20048;-84
2023/11/18 02:45:36;;;;;;;16.67;9.23;;;;;;;5.42;53.20;102041.41;5060683;28;20069;-84
2023/11/18 02:48:06;;;;;;;16.50;9.18;;;;;;;5.40;52.75;102040.59;5052411;28;20049;-84
2023/11/18 02:50:36;;;;;;;16.73;9.57;;;;;;;5.42;52.82;102049.56;5079026;28;20041;-84
2023/11/18 02:53:05;;;;;;;17.63;9.30;;;;;;;5.39;53.05;102041.53;5061465;28;20402;-82
2023/11/18 02:55:33;;;;;;;19.08;9.77;;;;;;;5.37;52.77;102038.03;5070852;28;20114;-82
2023/11/18 02:58:02;;;;;;;17.73;9.48;;;;;;;5.38;53.07;102039.78;5065820;28;20045;-82
2023/11/18 03:00:35;;;;;;;15.27;9.07;;;;;;;5.35;52.81;102050.78;5079094;28;20041;-83
2023/11/18 03:03:03;;;;;;;16.75;9.23;;;;;;;5.36;52.95;102054.41;5062975;28;20508;-82
2023/11/18 03:05:32;;;;;;;16.92;9.25;;;;;;;5.34;52.65;102064.44;5055223;28;20072;-83
2023/11/18 03:08:01;;;;;;;15.88;9.00;;;;;;;5.35;52.75;102068.91;5055645;28;20132;-85
2023/11/18 03:10:29;;;;;;;15.80;9.20;;;;;;;5.33;52.93;102063.56;5058987;28;20483;-83
2023/11/18 03:12:58;;;;;;;15.55;8.82;;;;;;;5.32;52.96;102045.50;5067950;28;20132;-84
2023/11/18 03:15:27;;;;;;;16.05;8.48;;;;;;;5.34;52.74;102042.72;5046455;28;20131;-84
2023/11/18 03:17:56;;;;;;;16.40;8.40;;;;;;;5.34;53.10;102023.72;5047722;28;20567;-83
2023/11/18 03:20:26;;;;;;;17.75;9.05;;;;;;;5.34;52.88;102031.88;5066625;28;20119;-83
2023/11/18 03:22:54;;;;;;;16.60;9.23;;;;;;;5.34;53.11;102035.47;5056434;28;20174;-84
2023/11/18 03:25:22;;;;;;;18.08;9.60;;;;;;;5.35;53.01;102034.50;5050354;28;20041;-83
2023/11/18 03:27:50;;;;;;;19.05;9.50;;;;;;;5.32;52.91;102023.78;5063286;28;20091;-84
2023/11/18 03:30:18;;;;;;;14.63;9.55;;;;;;;5.34;52.76;102023.72;5059900;28;20064;-85
2023/11/18 03:32:46;;;;;;;15.98;8.70;;;;;;;5.36;52.88;102010.97;5061840;28;20033;-83
2023/11/18 03:35:16;;;;;;;17.42;9.55;;;;;;;5.34;52.97;102000.16;5057356;28;20048;-83
2023/11/18 03:37:44;;;;;;;15.48;9.02;;;;;;;5.32;52.95;102003.91;5069809;28;20029;-85
2023/11/18 03:40:14;;;;;;;15.50;8.75;;;;;;;5.35;52.88;102001.06;5064248;28;20393;-85
2023/11/18 03:42:42;;;;;;;15.13;8.48;;;;;;;5.31;53.03;102000.31;5049653;28;20049;-86
2023/11/18 03:45:11;;;;;;;15.90;9.02;;;;;;;5.30;53.04;102010.28;5068645;28;20633;-86
2023/11/18 03:47:39;;;;;;;16.10;8.40;;;;;;;5.29;52.61;102018.53;5064189;28;20116;-84
2023/11/18 03:50:09;;;;;;;17.65;8.93;;;;;;;5.26;52.66;102013.22;5071780;28;20041;-84
2023/11/18 03:52:38;;;;;;;15.95;8.80;;;;;;;5.29;52.75;102024.78;5056942;28;20044;-85
2023/11/18 03:55:07;;;;;;;14.85;8.60;;;;;;;5.27;52.85;102029.44;5072685;28;20040;-86
2023/11/18 03:57:35;;;;;;;15.35;8.65;;;;;;;5.26;52.89;102032.22;5053113;28;20045;-84
2023/11/18 04:00:04;;;;;;;16.67;8.45;;;;;;;5.26;52.82;102043.97;5050557;28;20075;-82
2023/11/18 04:02:37;;;;;;;15.60;8.07;;;;;;;5.26;52.86;102051.22;5054188;28;20048;-85
2023/11/18 04:05:08;;;;;;;14.25;7.75;;;;;;;5.27;52.92;102044.84;5047237;28;20584;-84
2023/11/18 04:07:36;;;;;;;15.95;8.70;;;;;;;5.26;52.78;102048.50;5062678;28;20052;-86
2023/11/18 04:10:06;;;;;;;16.33;8.90;;;;;;;5.27;52.82;102026.72;5067071;28;20069;-83
2023/11/18 04:12:34;;;;;;;17.48;9.07;;;;;;;5.25;52.96;102035.88;5052716;28;20094;-83
2023/11/18 04:15:04;;;;;;;17.95;9.07;;;;;;;5.24;53.10;102023.25;5050781;28;20045;-82
2023/11/18 04:17:32;;;;;;;15.57;8.70;;;;;;;5.25;52.73;102020.47;5066902;28;20049;-84
2023/11/18 04:20:00;;;;;;;13.88;8.02;;;;;;;5.25;52.86;102019.59;5063576;28;20460;-84
2023/11/18 04:22:28;;;;;;;16.20;8.43;;;;;;;5.24;52.84;102012.41;5050815;28;20171;-83
2023/11/18 04:24:56;;;;;;;16.77;8.90;;;;;;;5.24;52.69;101999.72;5065693;28;20364;-82
2023/11/18 04:27:25;;;;;;;16.15;8.75;;;;;;;5.25;52.76;102001.47;5064800;28;20079;-83
2023/11/18 04:29:53;;;;;;;15.57;7.90;;;;;;;5.22;52.63;101998.91;5055850;28;20072;-84
2023/11/18 04:32:21;;;;;;;16.13;8.82;;;;;;;5.21;52.79;101991.72;5050114;28;20107;-83
2023/11/18 04:34:51;;;;;;;15.80;8.18;;;;;;;5.21;52.99;101990.88;5065966;28;20040;-82
2023/11/18 04:37:19;;;;;;;15.20;8.00;;;;;;;5.20;52.80;101983.66;5049800;28;20044;-85
2023/11/18 04:39:47;;;;;;;16.17;8.80;;;;;;;5.16;52.89;101974.75;5049948;28;20037;-84
2023/11/18 04:42:16;;;;;;;15.40;8.50;;;;;;;5.19;52.93;101971.03;5064337;28;20566;-84
2023/11/18 04:44:45;;;;;;;14.15;8.13;;;;;;;5.20;52.98;101967.38;5049395;28;20095;-83
2023/11/18 04:47:13;;;;;;;15.32;8.30;;;;;;;5.19;52.71;101963.78;5062303;28;20045;-83
2023/11/18 04:49:42;;;;;;;16.80;9.00;;;;;;;5.18;52.52;101956.59;5061614;28;20524;-81
2023/11/18 04:52:10;;;;;;;15.30;8.32;;;;;;;5.20;52.63;101959.25;5069097;28;20441;-82
2023/11/18 04:54:38;;;;;;;15.63;8.43;;;;;;;5.18;52.81;101959.31;5052463;28;20394;-83
2023/11/18 04:57:08;;;;;;;13.68;7.57;;;;;;;5.16;52.53;101953.03;5072467;28;20103;-82
2023/11/18 04:59:37;;;;;;;14.65;8.13;;;;;;;5.15;52.80;101950.38;5052263;28;20072;-82
2023/11/18 05:02:06;;;;;;;16.20;9.15;;;;;;;5.18;52.82;101947.56;5063796;28;20041;-81
2023/11/18 05:04:34;;;;;;;14.00;8.13;;;;;;;5.17;52.78;101953.91;5065132;28;20493;-82
2023/11/18 05:07:02;;;;;;;15.32;8.25;;;;;;;5.17;52.85;101953.91;5065074;28;20045;-82
2023/11/18 05:09:31;;;;;;;16.58;8.25;;;;;;;5.16;53.00;101944.00;5046577;28;20526;-82
2023/11/18 05:11:59;;;;;;;15.50;8.40;;;;;;;5.16;52.93;101939.47;5049840;28;20127;-82
2023/11/18 05:14:28;;;;;;;14.85;8.05;;;;;;;5.16;53.01;101922.28;5050356;28;20053;-81
2023/11/18 05:16:56;;;;;;;16.10;8.48;;;;;;;5.16;52.96;101917.75;5046162;28;20037;-82
2023/11/18 05:19:26;;;;;;;16.25;8.20;;;;;;;5.15;52.58;101913.28;5040185;28;20060;-81
2023/11/18 05:21:54;;;;;;;14.95;8.38;;;;;;;5.15;52.91;101906.97;5045643;28;20048;-82
2023/11/18 05:24:22;;;;;;;15.02;8.07;;;;;;;5.15;52.79;101902.41;5046724;28;20055;-84
2023/11/18 05:26:49;;;;;;;15.38;8.45;;;;;;;5.15;52.54;101909.69;5047473;28;20069;-82
2023/11/18 05:29:17;;;;;;;15.00;9.00;;;;;;;5.13;52.45;101903.47;5053415;28;20064;-83
2023/11/18 05:31:45;;;;;;;17.50;9.18;;;;;;;5.12;52.52;101899.88;5052329;28;20410;-82
2023/11/18 05:34:14;;;;;;;16.30;8.95;;;;;;;5.11;52.62;101911.69;5070922;28;20472;-82
2023/11/18 05:36:43;;;;;;;17.70;9.48;;;;;;;5.12;52.76;101907.13;5059547;28;20132;-84
2023/11/18 05:39:11;;;;;;;15.68;8.65;;;;;;;5.10;52.51;101906.31;5065197;28;20488;-83
2023/11/18 05:41:39;;;;;;;16.20;8.95;;;;;;;5.09;52.50;101908.16;5055769;28;20037;-84
2023/11/18 05:44:11;;;;;;;15.90;8.27;;;;;;;5.09;52.55;101910.88;5073749;28;20052;-83
2023/11/18 05:46:40;;;;;;;15.50;9.13;;;;;;;5.04;52.87;101912.94;5071754;28;20056;-83
2023/11/18 05:49:08;;;;;;;15.98;8.57;;;;;;;5.04;52.82;101896.66;5075436;28;20127;-83
2023/11/18 05:51:36;;;;;;;16.27;8.18;;;;;;;5.05;52.84;101895.66;5057818;28;20064;-83
2023/11/18 05:54:06;;;;;;;15.15;8.20;;;;;;;5.07;52.56;101892.88;5067933;28;20029;-83
2023/11/18 05:56:34;;;;;;;15.95;8.32;;;;;;;5.06;52.96;101893.84;5081270;28;20381;-83
2023/11/18 05:59:03;;;;;;;16.02;8.55;;;;;;;5.05;52.83;101889.38;5071842;28;20285;-82
2023/11/18 06:01:31;;;;;;;15.27;8.43;;;;;;;5.07;52.95;101893.78;5071995;28;20409;-82
2023/11/18 06:04:00;;;;;;;17.38;9.02;;;;;;;5.10;52.87;101898.19;5054176;28;20041;-81
2023/11/18 06:06:29;;;;;;;17.13;9.15;;;;;;;5.09;53.22;101891.00;5066223;28;20457;-81
2023/11/18 06:09:04;;;;;;;15.65;8.73;;;;;;;5.11;53.06;101881.84;5072937;28;20488;-83
2023/11/18 06:11:34;;;;;;;17.50;9.48;;;;;;;5.10;53.18;101887.31;5067676;28;20512;-82
2023/11/18 06:14:02;;;;;;;15.98;9.23;;;;;;;5.08;53.08;101895.53;5053607;28;20051;-82
2023/11/18 06:16:30;;;;;;;16.02;9.27;;;;;;;5.11;53.08;101875.53;5052965;28;20069;-82
2023/11/18 06:18:59;;;;;;;16.60;9.02;;;;;;;5.13;53.26;101870.91;5065614;28;20092;-84
2023/11/18 06:21:29;;;;;;;15.77;9.10;;;;;;;5.11;53.17;101860.13;5066174;28;20037;-81
2023/11/18 06:23:59;;;;;;;19.08;8.75;;;;;;;5.12;53.28;101866.44;5061540;28;20045;-82
2023/11/18 06:26:28;;;;;;;16.67;8.57;;;;;;;5.12;53.04;101861.88;5055880;28;20075;-84
2023/11/18 06:28:59;;;;;;;17.35;8.70;;;;;;;5.15;53.32;101866.25;5050927;28;20033;-82
2023/11/18 06:31:29;;;;;;;18.92;9.32;;;;;;;5.12;53.33;101863.72;5050825;28;20033;-84
2023/11/18 06:33:57;;;;;;;16.38;9.23;;;;;;;5.13;53.22;101860.06;5050974;28;20045;-84
2023/11/18 06:36:26;;;;;;;15.10;8.98;;;;;;;5.13;53.15;101857.34;5048372;28;20087;-84
2023/11/18 06:38:55;;;;;;;16.92;8.77;;;;;;;5.15;53.18;101866.25;5064486;28;20041;-82
2023/11/18 06:41:25;;;;;;;15.30;8.70;;;;;;;5.15;53.25;101859.00;5067599;28;20575;-83
2023/11/18 06:44:00;;;;;;;16.20;9.32;;;;;;;5.15;53.39;101856.28;5064721;28;20083;-82
2023/11/18 06:46:34;;;;;;;16.17;8.73;;;;;;;5.16;53.28;101852.63;5045152;28;20068;-83
2023/11/18 06:49:06;;;;;;;15.77;9.13;;;;;;;5.15;53.31;101856.28;5066562;28;20075;-83
2023/11/18 06:51:37;;;;;;;17.83;9.68;;;;;;;5.18;53.28;101871.59;5046157;28;20046;-83
2023/11/18 06:54:09;;;;;;;17.10;9.10;;;;;;;5.19;53.59;101889.63;5050480;28;20279;-82
2023/11/18 06:56:42;;;;;;;16.27;8.93;;;;;;;5.18;53.53;101874.31;5065413;28;20201;-83
2023/11/18 06:59:12;;;;;;;16.15;9.30;;;;;;;5.17;53.61;101875.22;5065416;28;20049;-82
2023/11/18 07:01:43;;;;;;;16.45;8.93;;;;;;;5.22;53.56;101878.59;5051032;28;20041;-83
2023/11/18 07:04:14;;;;;;;15.30;8.43;;;;;;;5.20;53.66;101870.56;5051797;28;20309;-81
2023/11/18 07:06:43;;;;;;;15.45;8.38;;;;;;;5.20;53.67;101875.13;5069484;28;20033;-84
2023/11/18 07:09:16;;;;;;;16.60;8.90;;;;;;;5.22;53.41;101884.91;5059073;28;20055;-85
2023/11/18 07:11:46;;;;;;;13.85;8.25;;;;;;;5.22;53.56;101906.63;5057752;28;20072;-84
2023/11/18 07:14:15;;;;;;;15.38;9.23;;;;;;;5.23;53.70;101913.81;5051768;28;20099;-84
2023/11/18 07:16:45;;;;;;;16.50;9.30;;;;;;;5.26;53.52;101901.94;5055489;28;20041;-85
2023/11/18 07:19:19;;;;;;;15.23;8.45;;;;;;;5.24;53.48;101895.69;5058575;28;20040;-83
2023/11/18 07:21:49;;;;;;;14.25;7.72;;;;;;;5.23;53.65;101897.53;5071235;28;20112;-82
2023/11/18 07:24:17;;;;;;;15.88;9.20;;;;;;;5.26;53.53;101900.13;5057225;28;20079;-83
2023/11/18 07:26:46;;;;;;;17.20;8.57;;;;;;;5.27;53.46;101880.16;5053198;28;20049;-82
2023/11/18 07:29:13;;;;;;;15.35;8.23;;;;;;;5.28;53.48;101875.63;5056892;28;20053;-83
2023/11/18 07:31:43;;;;;;;17.08;9.23;;;;;;;5.29;53.98;101867.38;5060312;28;20402;-82
2023/11/18 07:34:12;;;;;;;16.48;8.95;;;;;;;5.29;53.72;101870.09;5071896;28;20069;-83
2023/11/18 07:36:40;;;;;;;15.80;8.32;;;;;;;5.30;53.65;101874.56;5058012;28;20132;-81
2023/11/18 07:39:15;;;;;;;16.45;8.65;;;;;;;5.28;53.51;101868.34;5065953;28;20053;-83
2023/11/18 07:41:44;;;;;;;15.73;8.57;;;;;;;5.30;53.84;101862.81;5073088;28;20041;-84
2023/11/18 07:44:12;;;;;;;15.38;8.68;;;;;;;5.34;53.56;101861.72;5089741;28;20025;-83
2023/11/18 07:46:42;;;;;;;15.50;9.45;;;;;;;5.31;53.89;101861.88;5076648;28;20053;-82
2023/11/18 07:49:12;;;;;;;16.55;9.45;;;;;;;5.32;53.59;101847.34;5067614;28;20123;-83
2023/11/18 07:51:41;;;;;;;14.50;8.35;;;;;;;5.33;53.88;101851.81;5049619;28;20045;-82
2023/11/18 07:54:09;;;;;;;14.82;7.82;;;;;;;5.35;53.61;101849.03;5068582;28;20565;-83
2023/11/18 07:56:38;;;;;;;14.45;8.18;;;;;;;5.31;53.79;101848.31;5048404;28;20127;-82
2023/11/18 07:59:08;;;;;;;14.13;8.43;;;;;;;5.34;53.71;101850.88;5067336;28;20068;-82
2023/11/18 08:01:36;;;;;;;14.98;8.35;;;;;;;5.36;53.90;101854.41;5053808;28;20045;-82
2023/11/18 08:04:08;;;;;;;15.25;8.60;;;;;;;5.38;53.94;101859.75;5053619;28;20041;-81
2023/11/18 08:06:37;;;;;;;14.45;8.20;;;;;;;5.37;53.88;101864.31;5050473;28;20044;-82
2023/11/18 08:09:10;;;;;;;15.10;8.65;;;;;;;5.39;54.15;101848.78;5050289;28;20207;-82
2023/11/18 08:11:39;;;;;;;14.95;8.57;;;;;;;5.37;53.80;101858.88;5051200;28;20029;-82
2023/11/18 08:14:07;;;;;;;15.85;9.60;;;;;;;5.40;53.64;101855.97;5066792;28;20061;-82
2023/11/18 08:16:35;;;;;;;16.50;9.25;;;;;;;5.40;53.93;101858.69;5051141;28;20107;-82
2023/11/18 08:19:07;;;;;;;16.02;9.13;;;;;;;5.42;54.08;101845.94;5065799;28;20049;-83
2023/11/18 08:21:38;;;;;;;14.57;9.40;;;;;;;5.43;54.07;101841.38;5065510;28;20098;-83
2023/11/18 08:24:08;;;;;;;15.02;8.82;;;;;;;5.42;54.01;101856.78;5048962;28;20767;-83
2023/11/18 08:26:36;;;;;;;12.20;7.63;;;;;;;5.46;54.14;101863.81;5068640;28;20132;-84
2023/11/18 08:29:04;;;;;;;12.15;7.47;;;;;;;5.48;54.14;101863.75;5048158;28;20039;-83
2023/11/18 08:31:32;;;;;;;12.90;7.43;;;;;;;5.48;53.83;101851.06;5066692;28;20502;-83
2023/11/18 08:34:00;;;;;;;12.60;8.10;;;;;;;5.49;54.01;101854.66;5067245;28;20057;-82
2023/11/18 08:36:32;;;;;;;13.10;7.60;;;;;;;5.47;54.18;101853.84;5069715;28;20060;-83
2023/11/18 08:39:01;;;;;;;13.25;7.18;;;;;;;5.52;54.36;101862.66;5056072;28;20052;-83
2023/11/18 08:41:30;;;;;;;13.57;7.70;;;;;;;5.53;54.20;101869.84;5049798;28;20045;-82
2023/11/18 08:43:59;;;;;;;12.07;6.78;;;;;;;5.54;54.15;101847.16;5067319;28;20033;-81
2023/11/18 08:46:47;;;;;;;11.65;6.85;;;;;;;5.53;54.39;101849.00;5050481;28;20346;-83
2023/11/18 08:49:17;;;;;;;11.95;7.05;;;;;;;5.57;54.31;101853.31;5049569;28;20044;-81
2023/11/18 08:51:46;;;;;;;12.63;7.30;;;;;;;5.57;54.48;101852.41;5052115;28;20104;-82
2023/11/18 08:54:25;;;;;;;10.80;6.50;;;;;;;5.58;54.25;101857.78;5051571;28;20079;-81
2023/11/18 08:56:54;;;;;;;12.13;6.90;;;;;;;5.60;54.01;101861.31;5050697;28;20083;-81
2023/11/18 08:59:24;;;;;;;12.20;7.20;;;;;;;5.63;54.15;101857.53;5050378;28;20068;-82
2023/11/18 09:01:55;;;;;;;11.18;7.05;;;;;;;5.61;54.22;101856.75;5066067;28;20453;-82
2023/11/18 09:04:24;;;;;;;11.30;6.30;;;;;;;5.63;54.35;101862.97;5067398;28;20088;-82
2023/11/18 09:06:54;;;;;;;10.68;6.20;;;;;;;5.67;54.31;101857.31;5072458;28;20064;-82
2023/11/18 09:09:27;;;;;;;12.50;6.90;;;;;;;5.68;54.39;101845.50;5060143;28;20053;-82
2023/11/18 09:11:56;;;;;;;;;;;;;;;5.44;55.26;101833.16;5076972;28;20417;-82
2023/11/18 09:14:25;;;;;;;10.43;5.78;;;;;;;5.64;54.54;101833.00;5080649;28;19929;-82
2023/11/18 09:16:56;;;;;;;11.10;6.10;;;;;;;5.73;54.45;101836.22;5074750;28;20049;-83
2023/11/18 09:19:24;;;;;;;9.70;5.90;;;;;;;5.75;54.63;101823.44;5076002;28;20041;-82
2023/11/18 09:21:54;;;;;;;11.70;6.30;;;;;;;5.76;54.53;101819.78;5061473;28;20037;-82
2023/11/18 09:24:24;;;;;;;11.35;6.63;;;;;;;5.77;54.35;101818.81;5070254;28;20096;-83
2023/11/18 09:26:54;;;;;;;10.90;6.10;;;;;;;5.76;54.71;101817.94;5096044;28;20075;-83
2023/11/18 09:29:24;;;;;;;8.93;6.00;;;;;;;5.78;54.49;101809.72;5073110;28;20036;-82
2023/11/18 09:31:54;;;;;;;10.93;6.28;;;;;;;5.79;54.63;101814.19;5080084;28;20041;-82
2023/11/18 09:34:27;;;;;;;10.20;5.78;;;;;;;5.81;54.38;101807.69;5072163;28;20044;-82
2023/11/18 09:36:55;;;;;;;10.85;6.00;;;;;;;5.80;54.91;101803.22;5054430;28;20092;-82
2023/11/18 09:39:37;;;;;;;10.50;5.80;;;;;;;5.85;54.39;101808.44;5052962;28;20064;-82
2023/11/18 09:42:08;;;;;;;9.65;5.65;;;;;;;5.81;54.67;101813.13;5070659;28;20052;-82
2023/11/18 09:44:38;;;;;;;9.73;6.28;;;;;;;5.86;54.59;101805.63;5054248;28;20052;-83
2023/11/18 09:47:10;;;;;;;11.70;6.30;;;;;;;5.89;54.77;101807.28;5059626;28;20045;-83
2023/11/18 09:49:45;;;;;;;9.70;5.80;;;;;;;5.90;55.17;101800.91;5056304;28;20053;-83
2023/11/18 09:52:18;;;;;;;10.57;5.63;;;;;;;5.92;54.67;101802.56;5052987;28;20215;-82
2023/11/18 09:54:56;;;;;;;11.40;5.90;;;;;;;5.93;54.99;101800.75;5072756;28;20562;-82
2023/11/18 09:57:30;;;;;;;9.70;5.90;;;;;;;5.95;54.70;101796.13;5054241;28;20067;-82
2023/11/18 10:00:10;;;;;;;11.60;6.13;;;;;;;5.95;54.99;101790.69;5055043;28;20037;-84
2023/11/18 10:02:40;;;;;;;9.35;5.53;;;;;;;5.98;54.85;101809.50;5069591;28;20142;-83
2023/11/18 10:05:12;;;;;;;10.73;6.10;;;;;;;6.00;54.72;101797.63;5052163;28;20045;-82
2023/11/18 10:07:42;;;;;;;9.88;5.80;;;;;;;6.02;54.70;101795.69;5050215;28;20033;-82
2023/11/18 10:10:14;;;;;;;10.73;6.05;;;;;;;6.04;54.79;101790.16;5058680;28;20049;-82
2023/11/18 10:12:44;;;;;;;9.82;6.00;;;;;;;6.03;54.74;101783.88;5059848;28;20211;-82
2023/11/18 10:15:15;;;;;;;11.35;6.28;;;;;;;6.04;55.20;101782.88;5072839;28;20064;-82
2023/11/18 10:17:55;;;;;;;10.43;5.25;;;;;;;6.07;55.03;101773.69;5054719;28;20055;-82
2023/11/18 10:20:25;;;;;;;8.73;5.53;;;;;;;6.08;55.00;101753.72;5071215;28;20041;-85
2023/11/18 10:23:10;;;;;;;10.30;5.90;;;;;;;6.13;55.20;101750.72;5060503;28;20536;-83
2023/11/18 10:25:48;;;;;;;8.43;5.03;;;;;;;6.12;55.23;101741.69;5068170;28;20053;-83
2023/11/18 10:28:23;;;;;;;9.23;5.22;;;;;;;6.16;54.99;101732.44;5073211;28;20524;-83
2023/11/18 10:30:51;;;;;;;8.98;5.50;;;;;;;6.12;55.36;101738.13;5062223;28;20045;-83
2023/11/18 10:33:19;;;;;;;8.20;5.03;;;;;;;6.16;55.04;101721.56;5055487;28;20123;-82
2023/11/18 10:35:52;;;;;;;9.80;5.50;;;;;;;6.21;55.24;101724.88;5052819;28;20087;-83
2023/11/18 10:38:20;;;;;;;7.95;4.95;;;;;;;6.18;55.21;101707.88;5052650;28;20206;-81
2023/11/18 10:40:49;;;;;;;8.00;5.45;;;;;;;6.21;55.35;101699.53;5070057;28;20043;-82
2023/11/18 10:43:17;;;;;;;9.52;5.38;;;;;;;6.22;54.86;101699.47;5050549;28;20053;-82
2023/11/18 10:45:46;;;;;;;7.72;4.88;;;;;;;6.26;55.28;101702.91;5067629;28;20063;-82
2023/11/18 10:48:16;;;;;;;9.95;5.05;;;;;;;6.27;55.29;101688.34;5053972;28;20037;-82
2023/11/18 10:50:47;;;;;;;8.02;5.07;;;;;;;6.30;54.88;101693.59;5060425;28;20791;-82
2023/11/18 10:53:16;;;;;;;8.18;5.57;;;;;;;6.29;54.94;101675.53;5058270;28;20116;-82
2023/11/18 10:55:44;;;;;;;9.00;5.07;;;;;;;6.31;55.28;101665.44;5056027;28;20048;-82
2023/11/18 10:58:15;;;;;;;8.32;4.65;;;;;;;6.34;55.14;101676.16;5052172;28;20044;-83
2023/11/18 11:00:49;;;;;;;7.15;4.72;;;;;;;6.37;54.99;101689.56;5050042;28;20079;-84
2023/11/18 11:03:23;;;;;;;9.38;4.82;;;;;;;6.37;55.18;101686.84;5073900;28;20037;-84
2023/11/18 11:05:55;;;;;;;7.18;5.10;;;;;;;6.38;55.08;101684.03;5063916;28;20040;-82
2023/11/18 11:08:27;;;;;;;8.02;4.65;;;;;;;6.42;55.29;101676.59;5066604;28;20059;-82
2023/11/18 11:11:09;;;;;;;7.85;4.82;;;;;;;6.42;55.43;101666.59;5070154;28;20059;-82
2023/11/18 11:13:40;;;;;;;7.78;4.90;;;;;;;6.45;55.30;101658.25;5053563;28;20041;-83
2023/11/18 11:16:13;;;;;;;9.20;5.20;;;;;;;6.48;55.35;101651.75;5070041;28;20489;-83
2023/11/18 11:18:45;;;;;;;;;;;;;;;6.23;56.17;101670.44;5068541;28;20033;-83
2023/11/18 11:21:16;;;;;;;7.18;3.92;;;;;;;6.45;55.37;101650.09;5066403;28;19974;-83
2023/11/18 11:23:54;;;;;;;9.18;4.20;;;;;;;6.53;55.72;101665.97;5058785;28;20389;-81
2023/11/18 11:26:39;;;;;;;7.80;4.70;;;;;;;6.52;55.60;101656.06;5078172;28;20045;-83
2023/11/18 11:29:28;;;;;;;6.88;4.25;;;;;;;6.55;55.78;101655.00;5062601;28;20117;-82
2023/11/18 11:32:10;;;;;;;8.63;5.03;;;;;;;6.57;55.50;101656.66;5060025;28;20120;-82
2023/11/18 11:34:44;;;;;;;6.85;4.18;;;;;;;6.58;55.54;101658.44;5072372;28;20050;-82
2023/11/18 11:37:16;;;;;;;8.80;5.25;;;;;;;6.57;55.62;101661.22;5073023;28;20090;-82